createdAt,value
2017-09-16T00:02:18.068Z,3.30
2017-09-16T00:04:44.708Z,2.70
2017-09-16T00:07:11.378Z,2.77
2017-09-16T00:09:38.021Z,2.40
2017-09-16T00:12:04.668Z,2.40
2017-09-16T00:14:31.347Z,2.47
2017-09-16T00:16:57.992Z,2.40
2017-09-16T00:19:24.652Z,2.33
2017-09-16T00:21:51.293Z,2.30
2017-09-16T00:24:17.933Z,3.03
2017-09-16T00:26:44.607Z,2.47
2017-09-16T00:29:11.250Z,2.40
2017-09-16T00:31:37.915Z,2.93
2017-09-16T00:34:04.902Z,2.07
2017-09-16T00:36:31.552Z,2.47
2017-09-16T00:38:58.193Z,2.60
2017-09-16T00:41:24.855Z,2.77
2017-09-16T00:43:51.523Z,2.17
2017-09-16T00:46:18.188Z,2.67
2017-09-16T00:48:44.851Z,2.80
2017-09-16T00:51:11.495Z,3.13
2017-09-16T00:53:38.178Z,3.50
2017-09-16T00:56:04.841Z,2.57
2017-09-16T00:58:31.480Z,2.70
2017-09-16T01:00:58.161Z,2.63
2017-09-16T01:03:24.809Z,2.30
2017-09-16T01:05:51.456Z,2.27
2017-09-16T01:08:18.123Z,2.97
2017-09-16T01:10:44.764Z,2.73
2017-09-16T01:13:11.400Z,3.00
2017-09-16T01:15:38.068Z,2.90
2017-09-16T01:18:04.715Z,3.10
2017-09-16T01:20:31.375Z,3.17
2017-09-16T01:22:58.017Z,3.23
2017-09-16T01:25:24.677Z,2.80
2017-09-16T01:27:51.351Z,2.40
2017-09-16T01:30:18.012Z,3.43
2017-09-16T01:32:44.696Z,3.13
2017-09-16T01:35:11.332Z,2.77
2017-09-16T01:37:37.973Z,3.60
2017-09-16T01:40:04.632Z,3.50
2017-09-16T01:42:31.304Z,3.70
2017-09-16T01:44:57.950Z,3.60
2017-09-16T01:47:24.585Z,3.87
2017-09-16T01:49:51.252Z,3.03
2017-09-16T01:52:17.889Z,3.50
2017-09-16T01:54:44.525Z,3.60
2017-09-16T01:57:11.180Z,4.17
2017-09-16T01:59:37.948Z,4.27
2017-09-16T02:02:04.591Z,4.00
2017-09-16T02:04:31.234Z,4.40
2017-09-16T02:06:57.897Z,4.70
2017-09-16T02:09:24.571Z,4.57
2017-09-16T02:11:51.219Z,4.70
2017-09-16T02:14:17.903Z,5.93
2017-09-16T02:16:44.568Z,5.47
2017-09-16T02:19:11.213Z,4.13
2017-09-16T02:21:37.871Z,4.80
2017-09-16T02:24:04.508Z,4.40
2017-09-16T02:26:31.173Z,6.00
2017-09-16T02:28:58.260Z,5.37
2017-09-16T02:31:24.892Z,5.00
2017-09-16T02:33:51.553Z,4.50
2017-09-16T02:36:18.194Z,4.80
2017-09-16T02:38:44.867Z,5.43
2017-09-16T02:41:11.510Z,3.70
2017-09-16T02:43:38.170Z,5.40
2017-09-16T02:46:04.815Z,5.43
2017-09-16T02:48:31.469Z,5.10
2017-09-16T02:50:58.138Z,5.30
2017-09-16T02:53:24.804Z,4.90
2017-09-16T02:55:51.798Z,5.33
2017-09-16T02:58:18.452Z,6.30
2017-09-16T03:00:45.090Z,5.87
2017-09-16T03:03:11.909Z,6.00
2017-09-16T03:05:38.544Z,6.20
2017-09-16T03:08:05.189Z,6.30
2017-09-16T03:10:31.964Z,5.80
2017-09-16T03:12:58.609Z,6.10
2017-09-16T03:15:25.244Z,5.77
2017-09-16T03:17:51.902Z,7.90
2017-09-16T03:20:18.569Z,6.23
2017-09-16T03:22:45.232Z,6.37
2017-09-16T03:25:11.881Z,7.00
2017-09-16T03:27:38.524Z,6.13
2017-09-16T03:30:05.191Z,6.93
2017-09-16T03:32:31.828Z,7.20
2017-09-16T03:34:58.491Z,6.80
2017-09-16T03:37:25.128Z,6.70
2017-09-16T03:39:51.797Z,5.77
2017-09-16T03:42:18.435Z,7.83
2017-09-16T03:44:45.082Z,6.97
2017-09-16T03:47:11.749Z,7.60
2017-09-16T03:49:38.384Z,7.23
2017-09-16T03:52:05.046Z,7.23
2017-09-16T03:54:31.686Z,6.47
2017-09-16T03:56:58.352Z,7.63
2017-09-16T03:59:25.024Z,7.73
2017-09-16T04:01:57.526Z,8.47
2017-09-16T04:04:24.194Z,7.73
2017-09-16T04:06:50.864Z,7.60
2017-09-16T04:09:17.512Z,8.70
2017-09-16T04:11:44.159Z,8.33
2017-09-16T04:14:10.838Z,9.17
2017-09-16T04:16:37.472Z,7.90
2017-09-16T04:19:04.136Z,9.70
2017-09-16T04:21:30.775Z,9.03
2017-09-16T04:23:57.416Z,10.00
2017-09-16T04:26:24.084Z,10.20
2017-09-16T04:28:50.725Z,9.33
2017-09-16T04:31:17.396Z,8.67
2017-09-16T04:33:44.036Z,9.67
2017-09-16T04:36:10.671Z,9.13
2017-09-16T04:38:37.356Z,7.57
2017-09-16T04:41:04.024Z,8.50
2017-09-16T04:43:30.665Z,8.80
2017-09-16T04:45:57.320Z,10.03
2017-09-16T04:48:23.996Z,10.17
2017-09-16T04:50:50.643Z,10.10
2017-09-16T04:53:17.327Z,9.50
2017-09-16T04:55:43.969Z,8.80
2017-09-16T04:58:10.618Z,9.80
2017-09-16T05:00:37.547Z,9.20
2017-09-16T05:03:04.189Z,9.03
2017-09-16T05:05:30.827Z,9.83
2017-09-16T05:07:57.493Z,7.57
2017-09-16T05:10:24.164Z,8.47
2017-09-16T05:12:51.157Z,8.93
2017-09-16T05:15:17.804Z,10.30
2017-09-16T05:17:44.448Z,10.90
2017-09-16T05:20:11.128Z,10.77
2017-09-16T05:22:37.782Z,11.00
2017-09-16T05:25:04.740Z,10.03
2017-09-16T05:27:31.389Z,9.30
2017-09-16T05:29:58.034Z,9.60
2017-09-16T05:32:24.711Z,9.63
2017-09-16T05:34:51.384Z,9.37
2017-09-16T05:37:18.025Z,8.57
2017-09-16T05:39:44.664Z,9.57
2017-09-16T05:42:11.324Z,7.87
2017-09-16T05:44:37.973Z,9.40
2017-09-16T05:47:04.649Z,6.97
2017-09-16T05:49:31.293Z,6.17
2017-09-16T05:51:57.956Z,6.60
2017-09-16T05:54:24.608Z,6.87
2017-09-16T05:56:51.598Z,7.27
2017-09-16T05:59:18.253Z,7.23
2017-09-16T06:01:44.892Z,6.30
2017-09-16T06:04:11.554Z,4.97
2017-09-16T06:06:38.216Z,7.17
2017-09-16T06:09:04.872Z,8.47
2017-09-16T06:11:31.533Z,6.20
2017-09-16T06:13:58.184Z,5.20
2017-09-16T06:16:24.842Z,3.80
2017-09-16T06:18:51.491Z,4.50
2017-09-16T06:21:18.160Z,3.90
2017-09-16T06:23:44.819Z,3.43
2017-09-16T06:26:11.485Z,13.93
2017-09-16T06:28:38.152Z,4.97
2017-09-16T06:31:04.793Z,4.33
2017-09-16T06:33:31.475Z,3.73
2017-09-16T06:35:58.112Z,3.77
2017-09-16T06:38:24.776Z,4.27
2017-09-16T06:40:51.420Z,4.00
2017-09-16T06:43:18.064Z,8.03
2017-09-16T06:45:44.732Z,8.80
2017-09-16T06:48:11.678Z,5.77
2017-09-16T06:50:38.316Z,7.93
2017-09-16T06:53:04.964Z,6.67
2017-09-16T06:55:31.628Z,7.40
2017-09-16T06:57:58.269Z,4.17
2017-09-16T07:00:25.320Z,4.57
2017-09-16T07:02:51.971Z,4.70
2017-09-16T07:05:18.645Z,4.60
2017-09-16T07:07:45.320Z,4.33
2017-09-16T07:10:11.953Z,3.97
2017-09-16T07:12:38.595Z,4.67
2017-09-16T07:15:05.289Z,3.43
2017-09-16T07:17:31.974Z,4.30
2017-09-16T07:19:58.633Z,3.87
2017-09-16T07:22:25.270Z,4.20
2017-09-16T07:24:51.920Z,4.70
2017-09-16T07:27:18.738Z,3.53
2017-09-16T07:29:45.385Z,4.27
2017-09-16T07:32:12.031Z,5.60
2017-09-16T07:34:38.700Z,7.73
2017-09-16T07:37:05.337Z,4.90
2017-09-16T07:39:32.021Z,7.70
2017-09-16T07:41:58.679Z,3.93
2017-09-16T07:44:25.317Z,4.33
2017-09-16T07:46:51.972Z,3.90
2017-09-16T07:49:18.632Z,3.50
2017-09-16T07:51:45.272Z,3.87
2017-09-16T07:54:11.944Z,3.83
2017-09-16T07:56:38.590Z,4.13
2017-09-16T07:59:05.259Z,4.00
2017-09-16T08:01:31.901Z,3.70
2017-09-16T08:03:58.564Z,3.90
2017-09-16T08:06:25.224Z,3.63
2017-09-16T08:08:51.861Z,4.30
2017-09-16T08:11:18.528Z,3.70
2017-09-16T08:13:45.170Z,4.60
2017-09-16T08:16:11.825Z,4.27
2017-09-16T08:18:38.491Z,3.83
2017-09-16T08:21:05.130Z,4.70
2017-09-16T08:23:31.793Z,6.23
2017-09-16T08:25:58.432Z,4.30
2017-09-16T08:28:25.075Z,4.33
2017-09-16T08:30:51.732Z,5.20
2017-09-16T08:33:18.416Z,5.60
2017-09-16T08:35:45.068Z,6.50
2017-09-16T08:38:11.708Z,5.30
2017-09-16T08:40:38.377Z,8.10
2017-09-16T08:43:05.018Z,5.13
2017-09-16T08:45:31.677Z,5.10
2017-09-16T08:47:58.493Z,5.40
2017-09-16T08:50:25.139Z,4.60
2017-09-16T08:52:51.782Z,4.90
2017-09-16T08:55:18.457Z,5.27
2017-09-16T08:57:45.100Z,4.50
2017-09-16T09:00:12.093Z,5.67
2017-09-16T09:02:38.767Z,6.00
2017-09-16T09:05:05.409Z,4.57
2017-09-16T09:07:32.071Z,5.83
2017-09-16T09:09:58.734Z,5.13
2017-09-16T09:12:25.406Z,5.53
2017-09-16T09:14:52.052Z,5.70
2017-09-16T09:17:18.691Z,5.77
2017-09-16T09:19:45.653Z,6.63
2017-09-16T09:22:12.292Z,6.67
2017-09-16T09:24:38.929Z,5.87
2017-09-16T09:27:05.609Z,6.83
2017-09-16T09:29:32.277Z,7.43
2017-09-16T09:31:59.193Z,5.43
2017-09-16T09:34:25.840Z,6.87
2017-09-16T09:36:52.487Z,6.77
2017-09-16T09:39:19.162Z,5.90
2017-09-16T09:41:45.808Z,6.07
2017-09-16T09:44:12.475Z,5.50
2017-09-16T09:46:39.116Z,5.80
2017-09-16T09:49:05.753Z,5.47
2017-09-16T09:51:32.437Z,6.47
2017-09-16T09:53:59.081Z,6.17
2017-09-16T09:56:25.744Z,6.50
2017-09-16T09:58:52.412Z,6.10
2017-09-16T10:01:19.053Z,9.70
2017-09-16T10:03:45.713Z,5.13
2017-09-16T10:06:12.373Z,5.53
2017-09-16T10:08:39.031Z,5.07
2017-09-16T10:11:05.692Z,4.30
2017-09-16T10:13:32.329Z,4.87
2017-09-16T10:15:58.989Z,5.20
2017-09-16T10:18:25.644Z,5.20
2017-09-16T10:20:52.286Z,8.03
2017-09-16T10:23:18.965Z,8.00
2017-09-16T10:25:45.600Z,6.33
2017-09-16T10:28:12.244Z,7.27
2017-09-16T10:30:38.905Z,5.90
2017-09-16T10:33:05.553Z,5.80
2017-09-16T10:35:32.201Z,4.87
2017-09-16T10:37:58.856Z,6.13
2017-09-16T10:40:25.525Z,7.80
2017-09-16T10:42:52.196Z,7.13
2017-09-16T10:45:18.859Z,6.50
2017-09-16T10:47:45.527Z,6.83
2017-09-16T10:50:12.193Z,7.53
2017-09-16T10:52:38.880Z,7.70
2017-09-16T10:55:05.761Z,7.77
2017-09-16T10:57:32.391Z,7.73
2017-09-16T10:59:59.056Z,6.93
2017-09-16T11:02:25.703Z,7.83
2017-09-16T11:04:52.376Z,6.53
2017-09-16T11:07:19.011Z,6.80
2017-09-16T11:09:45.687Z,6.97
2017-09-16T11:12:12.330Z,6.27
2017-09-16T11:14:39.400Z,8.53
2017-09-16T11:17:06.048Z,8.00
2017-09-16T11:19:32.684Z,9.37
2017-09-16T11:21:59.349Z,8.87
2017-09-16T11:24:26.168Z,7.83
2017-09-16T11:26:52.805Z,7.57
2017-09-16T11:29:19.446Z,9.03
2017-09-16T11:31:46.390Z,9.17
2017-09-16T11:34:13.036Z,4.90
2017-09-16T11:36:39.675Z,7.90
2017-09-16T11:39:06.340Z,9.47
2017-09-16T11:41:33.013Z,7.67
2017-09-16T11:43:59.678Z,8.17
2017-09-16T11:46:26.319Z,6.10
2017-09-16T11:48:52.977Z,7.37
2017-09-16T11:51:19.617Z,6.63
2017-09-16T11:53:46.282Z,5.63
2017-09-16T11:56:12.925Z,6.77
2017-09-16T11:58:39.696Z,9.60
2017-09-16T12:01:06.339Z,7.70
2017-09-16T12:03:32.989Z,8.73
2017-09-16T12:05:59.654Z,8.90
2017-09-16T12:08:26.324Z,9.20
2017-09-16T12:10:52.976Z,10.07
2017-09-16T12:13:19.623Z,8.93
2017-09-16T12:15:46.297Z,8.00
2017-09-16T12:18:12.948Z,6.60
2017-09-16T12:20:39.865Z,7.60
2017-09-16T12:23:06.508Z,6.90
2017-09-16T12:25:33.154Z,6.77
2017-09-16T12:27:59.824Z,8.40
2017-09-16T12:30:26.472Z,7.77
2017-09-16T12:32:53.132Z,7.33
2017-09-16T12:35:19.807Z,6.70
2017-09-16T12:37:46.447Z,7.70
2017-09-16T12:40:13.125Z,6.87
2017-09-16T12:42:39.765Z,6.07
2017-09-16T12:45:06.407Z,7.60
2017-09-16T12:47:33.069Z,6.10
2017-09-16T12:49:59.711Z,10.80
2017-09-16T12:52:26.381Z,11.10
2017-09-16T12:54:53.029Z,10.93
2017-09-16T12:57:19.700Z,5.50
2017-09-16T12:59:46.339Z,7.20
2017-09-16T13:02:13.028Z,5.33
2017-09-16T13:04:39.664Z,6.60
2017-09-16T13:07:06.300Z,6.10
2017-09-16T13:09:32.980Z,6.17
2017-09-16T13:11:59.627Z,4.57
2017-09-16T13:14:26.404Z,4.37
2017-09-16T13:16:53.067Z,4.53
2017-09-16T13:19:19.695Z,6.27
2017-09-16T13:21:46.361Z,4.00
2017-09-16T13:24:13.011Z,4.70
2017-09-16T13:26:39.648Z,4.90
2017-09-16T13:29:06.317Z,5.97
2017-09-16T13:31:32.966Z,4.93
2017-09-16T13:33:59.613Z,4.73
2017-09-16T13:36:26.279Z,3.70
2017-09-16T13:38:52.921Z,4.83
2017-09-16T13:41:19.584Z,5.97
2017-09-16T13:43:46.265Z,5.10
2017-09-16T13:46:12.944Z,5.00
2017-09-16T13:48:39.604Z,5.20
2017-09-16T13:51:06.244Z,5.00
2017-09-16T13:53:32.889Z,5.67
2017-09-16T13:55:59.560Z,4.77
2017-09-16T13:58:26.231Z,5.23
2017-09-16T14:00:52.877Z,6.37
2017-09-16T14:03:19.514Z,5.00
2017-09-16T14:05:46.172Z,5.17
2017-09-16T14:08:12.836Z,4.73
2017-09-16T14:10:39.476Z,4.50
2017-09-16T14:13:06.144Z,5.17
2017-09-16T14:15:32.784Z,4.50
2017-09-16T14:18:00.319Z,5.17
2017-09-16T14:20:26.960Z,5.90
2017-09-16T14:22:53.597Z,4.57
2017-09-16T14:25:20.260Z,4.90
2017-09-16T14:27:46.906Z,4.20
2017-09-16T14:30:13.549Z,4.47
2017-09-16T14:32:40.209Z,5.27
2017-09-16T14:35:06.879Z,5.30
2017-09-16T14:37:33.524Z,6.60
2017-09-16T14:40:00.189Z,6.23
2017-09-16T14:42:26.836Z,6.73
2017-09-16T14:44:53.511Z,6.30
2017-09-16T14:47:20.156Z,5.73
2017-09-16T14:49:46.825Z,6.47
2017-09-16T14:52:13.500Z,5.17
2017-09-16T14:54:40.139Z,5.60
2017-09-16T14:57:06.789Z,4.23
2017-09-16T14:59:33.452Z,4.37
2017-09-16T15:02:00.087Z,4.83
2017-09-16T15:04:26.739Z,4.57
2017-09-16T15:06:53.430Z,3.90
2017-09-16T15:09:20.073Z,4.50
2017-09-16T15:11:46.716Z,3.97
2017-09-16T15:14:13.399Z,4.07
2017-09-16T15:16:40.040Z,4.90
2017-09-16T15:19:06.707Z,3.37
2017-09-16T15:21:33.353Z,3.57
2017-09-16T15:24:00.009Z,3.13
2017-09-16T15:26:26.644Z,3.60
2017-09-16T15:28:53.280Z,2.63
2017-09-16T15:31:19.942Z,2.20
2017-09-16T15:33:46.604Z,3.77
2017-09-16T15:36:13.268Z,3.30
2017-09-16T15:38:39.948Z,3.17
2017-09-16T15:41:06.590Z,1.90
2017-09-16T15:43:33.233Z,3.13
2017-09-16T15:45:59.888Z,3.40
2017-09-16T15:48:26.571Z,3.37
2017-09-16T15:50:53.231Z,3.07
2017-09-16T15:53:19.872Z,3.67
2017-09-16T15:55:46.530Z,2.93
2017-09-16T15:58:13.178Z,3.23
2017-09-16T16:00:39.820Z,3.60
2017-09-16T16:03:06.485Z,4.10
2017-09-16T16:05:33.121Z,3.47
2017-09-16T16:07:59.962Z,3.80
2017-09-16T16:10:26.612Z,2.90
2017-09-16T16:12:53.248Z,4.87
2017-09-16T16:15:19.913Z,4.20
2017-09-16T16:17:46.552Z,4.70
2017-09-16T16:20:13.203Z,5.87
2017-09-16T16:22:39.843Z,4.13
2017-09-16T16:25:06.647Z,3.23
2017-09-16T16:27:33.294Z,4.10
2017-09-16T16:29:59.932Z,3.60
2017-09-16T16:32:26.600Z,3.83
2017-09-16T16:34:53.237Z,4.07
2017-09-16T16:37:19.873Z,5.40
2017-09-16T16:39:46.536Z,4.80
2017-09-16T16:42:13.172Z,6.57
2017-09-16T16:44:39.816Z,5.07
2017-09-16T16:47:06.497Z,5.57
2017-09-16T16:49:33.148Z,5.07
2017-09-16T16:51:59.809Z,4.40
2017-09-16T16:54:26.448Z,4.57
2017-09-16T16:56:53.105Z,4.83
2017-09-16T16:59:19.744Z,6.17
2017-09-16T17:01:46.409Z,5.80
2017-09-16T17:04:13.069Z,5.40
2017-09-16T17:06:39.724Z,9.60
2017-09-16T17:09:06.397Z,10.30
2017-09-16T17:11:33.040Z,7.80
2017-09-16T17:13:59.690Z,6.27
2017-09-16T17:16:26.723Z,5.87
2017-09-16T17:18:53.361Z,5.60
2017-09-16T17:21:19.999Z,6.17
2017-09-16T17:23:46.664Z,6.70
2017-09-16T17:26:13.312Z,7.57
2017-09-16T17:28:39.960Z,6.73
2017-09-16T17:31:06.626Z,7.07
2017-09-16T17:33:33.269Z,8.30
2017-09-16T17:35:59.921Z,8.23
2017-09-16T17:38:26.590Z,8.20
2017-09-16T17:40:53.236Z,7.87
2017-09-16T17:43:19.904Z,8.60
2017-09-16T17:45:46.573Z,8.23
2017-09-16T17:48:13.221Z,9.73
2017-09-16T17:50:40.096Z,8.30
2017-09-16T17:53:06.751Z,9.40
2017-09-16T17:55:33.396Z,9.87
2017-09-16T17:58:00.061Z,9.63
2017-09-16T18:00:26.707Z,9.60
2017-09-16T18:02:53.360Z,11.40
2017-09-16T18:05:20.026Z,10.30
2017-09-16T18:07:46.675Z,10.93
2017-09-16T18:10:13.348Z,10.67
2017-09-16T18:12:40.005Z,12.63
2017-09-16T18:15:06.681Z,14.67
2017-09-16T18:17:33.353Z,13.97
2017-09-16T18:20:00.028Z,13.20
2017-09-16T18:22:26.692Z,17.30
2017-09-16T18:24:53.344Z,16.03
2017-09-16T18:27:19.988Z,16.90
2017-09-16T18:29:46.664Z,16.37
2017-09-16T18:32:13.308Z,19.90
2017-09-16T18:34:39.962Z,19.50
2017-09-16T18:37:06.630Z,20.10
2017-09-16T18:39:33.281Z,14.17
2017-09-16T18:42:00.164Z,15.83
2017-09-16T18:44:26.811Z,14.33
2017-09-16T18:46:53.473Z,14.40
2017-09-16T18:49:20.173Z,11.27
2017-09-16T18:51:46.836Z,12.10
2017-09-16T18:54:13.488Z,10.00
2017-09-16T18:56:40.159Z,11.60
2017-09-16T18:59:06.832Z,10.67
2017-09-16T19:01:33.492Z,9.10
2017-09-16T19:04:00.161Z,12.60
2017-09-16T19:06:26.840Z,15.47
2017-09-16T19:08:53.499Z,16.10
2017-09-16T19:11:20.160Z,15.07
2017-09-16T19:13:46.841Z,17.97
2017-09-16T19:16:13.492Z,17.80
2017-09-16T19:18:40.164Z,19.67
2017-09-16T19:21:06.815Z,20.07
2017-09-16T19:23:33.589Z,20.93
2017-09-16T19:26:00.245Z,21.00
2017-09-16T19:28:26.931Z,22.43
2017-09-16T19:30:53.900Z,22.27
2017-09-16T19:33:20.552Z,22.10
2017-09-16T19:35:47.217Z,23.60
2017-09-16T19:38:14.233Z,22.30
2017-09-16T19:40:40.894Z,37.93
2017-09-16T19:43:07.561Z,22.37
2017-09-16T19:45:34.257Z,21.33
2017-09-16T19:48:00.921Z,21.50
2017-09-16T19:50:27.568Z,21.53
2017-09-16T19:52:54.241Z,20.67
2017-09-16T19:55:20.919Z,22.17
2017-09-16T19:57:47.572Z,20.73
2017-09-16T20:00:14.232Z,21.07
2017-09-16T20:02:40.904Z,22.60
2017-09-16T20:05:07.552Z,18.10
2017-09-16T20:07:34.224Z,19.47
2017-09-16T20:10:00.877Z,17.37
2017-09-16T20:12:27.532Z,18.67
2017-09-16T20:14:54.219Z,18.40
2017-09-16T20:17:20.894Z,18.33
2017-09-16T20:19:47.662Z,18.83
2017-09-16T20:22:14.337Z,19.27
2017-09-16T20:24:40.994Z,18.60
2017-09-16T20:27:07.677Z,16.93
2017-09-16T20:29:34.358Z,17.23
2017-09-16T20:32:01.013Z,20.60
2017-09-16T20:34:27.689Z,18.50
2017-09-16T20:36:54.336Z,17.93
2017-09-16T20:39:21.020Z,15.60
2017-09-16T20:41:47.685Z,17.30
2017-09-16T20:44:14.347Z,16.60
2017-09-16T20:46:40.998Z,16.50
2017-09-16T20:49:07.644Z,16.57
2017-09-16T20:51:34.320Z,18.43
2017-09-16T20:54:00.992Z,16.70
2017-09-16T20:56:27.635Z,17.60
2017-09-16T20:58:54.330Z,15.53
2017-09-16T21:01:20.974Z,16.40
2017-09-16T21:03:47.661Z,15.83
2017-09-16T21:06:14.335Z,15.30
2017-09-16T21:08:41.036Z,14.37
2017-09-16T21:11:07.731Z,13.77
2017-09-16T21:13:34.394Z,16.20
2017-09-16T21:16:01.044Z,17.03
2017-09-16T21:18:27.722Z,16.50
2017-09-16T21:20:54.748Z,17.97
2017-09-16T21:23:21.391Z,17.77
2017-09-16T21:25:48.363Z,15.80
2017-09-16T21:28:15.022Z,16.67
2017-09-16T21:30:41.681Z,16.40
2017-09-16T21:33:08.374Z,17.20
2017-09-16T21:35:35.028Z,16.20
2017-09-16T21:38:01.676Z,16.63
2017-09-16T21:40:28.351Z,16.60
2017-09-16T21:42:55.010Z,16.93
2017-09-16T21:45:21.673Z,19.77
2017-09-16T21:47:48.349Z,20.50
2017-09-16T21:50:15.032Z,17.27
2017-09-16T21:52:41.684Z,19.00
2017-09-16T21:55:08.370Z,16.10
2017-09-16T21:57:35.020Z,15.80
2017-09-16T22:00:01.669Z,16.30
2017-09-16T22:02:28.336Z,17.40
2017-09-16T22:04:55.032Z,16.10
2017-09-16T22:07:21.676Z,14.73
2017-09-16T22:09:48.328Z,16.80
2017-09-16T22:12:15.005Z,16.33
2017-09-16T22:14:41.648Z,16.30
2017-09-16T22:17:08.332Z,16.07
2017-09-16T22:19:35.016Z,19.27
2017-09-16T22:22:01.685Z,18.17
2017-09-16T22:24:28.340Z,18.50
2017-09-16T22:26:55.028Z,17.57
2017-09-16T22:29:21.694Z,17.77
2017-09-16T22:31:48.341Z,17.27
2017-09-16T22:34:15.018Z,19.53
2017-09-16T22:36:41.693Z,20.70
2017-09-16T22:39:08.360Z,17.10
2017-09-16T22:41:35.020Z,17.97
2017-09-16T22:44:01.664Z,19.07
2017-09-16T22:46:28.324Z,20.50
2017-09-16T22:48:55.001Z,18.90
2017-09-16T22:51:21.807Z,19.03
2017-09-16T22:53:48.460Z,19.53
2017-09-16T22:56:15.116Z,20.07
2017-09-16T22:58:41.835Z,19.60
2017-09-16T23:01:08.512Z,21.47
2017-09-16T23:03:35.159Z,20.27
2017-09-16T23:06:01.833Z,19.73
2017-09-16T23:08:28.476Z,18.40
2017-09-16T23:10:55.129Z,17.60
2017-09-16T23:13:22.191Z,17.43
2017-09-16T23:15:48.836Z,14.67
2017-09-16T23:18:15.497Z,16.23
2017-09-16T23:20:42.165Z,15.50
2017-09-16T23:23:08.812Z,15.03
2017-09-16T23:25:35.497Z,14.33
2017-09-16T23:28:02.153Z,15.23
2017-09-16T23:30:28.821Z,17.67
2017-09-16T23:32:55.465Z,16.97
2017-09-16T23:35:22.143Z,17.97
2017-09-16T23:37:48.801Z,19.20
2017-09-16T23:40:15.459Z,16.00
2017-09-16T23:42:42.137Z,17.50
2017-09-16T23:45:08.805Z,18.23
2017-09-16T23:47:35.477Z,18.17
2017-09-16T23:50:02.120Z,17.70
2017-09-16T23:52:28.939Z,17.17
2017-09-16T23:54:55.592Z,17.13
2017-09-16T23:57:22.247Z,18.23
2017-09-16T23:59:48.917Z,19.60
